Henderson, Maryland
Current Conditions -  °F | °C
As of 7:58 AM on Friday 24 Oct 2014 (Local Time) from KDOV Reporting Station
Overcast Overcast  
Wind Chill: 13°   Ceiling: 3400
Heat Index: 13°   Visibility: 10mi
Dew Point:   Wind: 7mph
Humidity: 72%   Direction: 260°W
Pressure: 29.86"   Gusts: NA
Location:  39.07°N, 75.77°W
Report Text: KDOV 241158Z AUTO 26006KT 10SM OVC034 13/08 A2986 RMK AO2 SLP115 70001 T01250075 10135 20115 52006
Loading
Personal Weather Stations






























Interactive Weather Map
Tropical Storm Tracking
New forecast layout! Learn more

10-Day Weather Forecast

Advertisements
Track Severe Weather on mobile